Alta Loma, Texas
Current Conditions -  °F | °C
As of 11:52 AM on Friday 24 Oct 2014 (Local Time) from KGLS Reporting Station
Clear Clear  
Wind Chill: 71°   Ceiling: Unl
Heat Index: 71°   Visibility: 10mi
Dew Point: 55°   Wind: 10mph
Humidity: 57%   Direction: 10°N
Pressure: 30.17"   Gusts: NA
Location:  29.359°N, 95.0861°W
Report Text: KGLS 241652Z 01009KT 10SM CLR 22/13 A3017 RMK AO2 SLP216 T02170128
Loading
Personal Weather Stations






























Interactive Weather Map
Tropical Storm Tracking
New forecast layout! Learn more

10-Day Weather Forecast

Advertisements
Track Severe Weather on mobile